sensor_id;sensor_type;location;lat;lon;timestamp;P1;durP1;ratioP1;P2;durP2;ratioP2
59306;SDS011;47983;53.016;-2.260;2023-01-31T00:01:51;6.40;;;1.38;;
59306;SDS011;47983;53.016;-2.260;2023-01-31T00:04:19;12.07;;;1.25;;
59306;SDS011;47983;53.016;-2.260;2023-01-31T00:06:47;10.15;;;0.95;;
59306;SDS011;47983;53.016;-2.260;2023-01-31T00:09:17;10.02;;;1.63;;
59306;SDS011;47983;53.016;-2.260;2023-01-31T00:11:45;5.18;;;0.90;;
59306;SDS011;47983;53.016;-2.260;2023-01-31T00:14:15;8.50;;;1.05;;
59306;SDS011;47983;53.016;-2.260;2023-01-31T00:16:45;7.80;;;1.55;;
59306;SDS011;47983;53.016;-2.260;2023-01-31T00:19:13;10.80;;;1.00;;
59306;SDS011;47983;53.016;-2.260;2023-01-31T00:21:41;8.48;;;1.55;;
59306;SDS011;47983;53.016;-2.260;2023-01-31T00:24:11;10.60;;;2.30;;
59306;SDS011;47983;53.016;-2.260;2023-01-31T00:26:39;6.25;;;1.80;;
59306;SDS011;47983;53.016;-2.260;2023-01-31T00:29:07;5.07;;;2.25;;
59306;SDS011;47983;53.016;-2.260;2023-01-31T00:31:36;7.43;;;1.30;;
59306;SDS011;47983;53.016;-2.260;2023-01-31T00:34:05;10.40;;;1.80;;
59306;SDS011;47983;53.016;-2.260;2023-01-31T00:36:34;7.85;;;0.77;;
59306;SDS011;47983;53.016;-2.260;2023-01-31T00:39:03;11.80;;;1.07;;
59306;SDS011;47983;53.016;-2.260;2023-01-31T00:41:32;10.80;;;1.42;;
59306;SDS011;47983;53.016;-2.260;2023-01-31T00:44:04;5.30;;;0.95;;
59306;SDS011;47983;53.016;-2.260;2023-01-31T00:46:32;3.67;;;0.82;;
59306;SDS011;47983;53.016;-2.260;2023-01-31T00:49:01;7.20;;;1.48;;
59306;SDS011;47983;53.016;-2.260;2023-01-31T00:51:29;13.52;;;1.70;;
59306;SDS011;47983;53.016;-2.260;2023-01-31T00:53:56;19.65;;;1.75;;
59306;SDS011;47983;53.016;-2.260;2023-01-31T00:56:24;15.80;;;1.58;;
59306;SDS011;47983;53.016;-2.260;2023-01-31T00:58:52;9.68;;;1.05;;
59306;SDS011;47983;53.016;-2.260;2023-01-31T01:03:52;7.70;;;1.20;;
59306;SDS011;47983;53.016;-2.260;2023-01-31T01:06:21;7.90;;;1.98;;
59306;SDS011;47983;53.016;-2.260;2023-01-31T01:08:51;11.88;;;1.50;;
59306;SDS011;47983;53.016;-2.260;2023-01-31T01:11:24;11.05;;;2.53;;
59306;SDS011;47983;53.016;-2.260;2023-01-31T01:13:56;9.93;;;1.52;;
59306;SDS011;47983;53.016;-2.260;2023-01-31T01:16:27;8.90;;;1.00;;
59306;SDS011;47983;53.016;-2.260;2023-01-31T01:19:00;4.93;;;0.80;;
59306;SDS011;47983;53.016;-2.260;2023-01-31T01:21:30;3.95;;;0.65;;
59306;SDS011;47983;53.016;-2.260;2023-01-31T01:24:06;10.48;;;0.77;;
59306;SDS011;47983;53.016;-2.260;2023-01-31T01:26:38;6.50;;;1.38;;
59306;SDS011;47983;53.016;-2.260;2023-01-31T01:29:06;5.72;;;1.30;;
59306;SDS011;47983;53.016;-2.260;2023-01-31T01:31:33;3.60;;;0.93;;
59306;SDS011;47983;53.016;-2.260;2023-01-31T01:34:03;14.40;;;1.45;;
59306;SDS011;47983;53.016;-2.260;2023-01-31T01:36:34;8.90;;;1.20;;
59306;SDS011;47983;53.016;-2.260;2023-01-31T01:39:03;11.52;;;2.20;;
59306;SDS011;47983;53.016;-2.260;2023-01-31T01:41:32;13.18;;;1.13;;
59306;SDS011;47983;53.016;-2.260;2023-01-31T01:44:00;5.88;;;0.88;;
59306;SDS011;47983;53.016;-2.260;2023-01-31T01:46:32;9.32;;;2.03;;
59306;SDS011;47983;53.016;-2.260;2023-01-31T01:49:04;6.63;;;1.73;;
59306;SDS011;47983;53.016;-2.260;2023-01-31T01:51:38;19.65;;;2.88;;
59306;SDS011;47983;53.016;-2.260;2023-01-31T01:54:19;9.35;;;1.25;;
59306;SDS011;47983;53.016;-2.260;2023-01-31T01:56:50;7.05;;;1.20;;
59306;SDS011;47983;53.016;-2.260;2023-01-31T01:59:26;5.40;;;0.73;;
59306;SDS011;47983;53.016;-2.260;2023-01-31T02:01:58;13.57;;;1.30;;
59306;SDS011;47983;53.016;-2.260;2023-01-31T02:04:29;8.05;;;1.80;;
59306;SDS011;47983;53.016;-2.260;2023-01-31T02:07:00;11.90;;;1.83;;
59306;SDS011;47983;53.016;-2.260;2023-01-31T02:12:10;9.30;;;1.67;;
59306;SDS011;47983;53.016;-2.260;2023-01-31T02:14:39;7.38;;;1.30;;
59306;SDS011;47983;53.016;-2.260;2023-01-31T02:17:12;13.23;;;1.98;;
59306;SDS011;47983;53.016;-2.260;2023-01-31T02:28:11;8.52;;;1.23;;
59306;SDS011;47983;53.016;-2.260;2023-01-31T02:36:02;5.50;;;2.00;;
59306;SDS011;47983;53.016;-2.260;2023-01-31T02:38:54;8.15;;;1.23;;
59306;SDS011;47983;53.016;-2.260;2023-01-31T02:43:59;13.63;;;2.10;;
59306;SDS011;47983;53.016;-2.260;2023-01-31T02:49:29;9.85;;;1.67;;
59306;SDS011;47983;53.016;-2.260;2023-01-31T02:55:03;5.25;;;0.82;;
59306;SDS011;47983;53.016;-2.260;2023-01-31T02:57:57;14.60;;;2.85;;
59306;SDS011;47983;53.016;-2.260;2023-01-31T03:00:28;17.20;;;2.10;;
59306;SDS011;47983;53.016;-2.260;2023-01-31T03:02:59;16.35;;;1.48;;
59306;SDS011;47983;53.016;-2.260;2023-01-31T03:05:27;9.00;;;1.20;;
59306;SDS011;47983;53.016;-2.260;2023-01-31T03:07:56;13.98;;;1.90;;
59306;SDS011;47983;53.016;-2.260;2023-01-31T03:14:02;10.73;;;1.42;;
59306;SDS011;47983;53.016;-2.260;2023-01-31T03:16:26;11.88;;;2.03;;
59306;SDS011;47983;53.016;-2.260;2023-01-31T03:22:23;10.25;;;1.23;;
59306;SDS011;47983;53.016;-2.260;2023-01-31T03:24:50;6.65;;;1.05;;
59306;SDS011;47983;53.016;-2.260;2023-01-31T03:27:19;7.72;;;2.03;;
59306;SDS011;47983;53.016;-2.260;2023-01-31T03:29:52;10.75;;;2.40;;
59306;SDS011;47983;53.016;-2.260;2023-01-31T03:32:26;9.25;;;1.88;;
59306;SDS011;47983;53.016;-2.260;2023-01-31T03:35:05;15.35;;;1.15;;
59306;SDS011;47983;53.016;-2.260;2023-01-31T03:37:38;15.90;;;1.80;;
59306;SDS011;47983;53.016;-2.260;2023-01-31T03:40:30;17.02;;;1.63;;
59306;SDS011;47983;53.016;-2.260;2023-01-31T03:43:18;15.68;;;1.40;;
59306;SDS011;47983;53.016;-2.260;2023-01-31T03:45:57;16.10;;;1.55;;
59306;SDS011;47983;53.016;-2.260;2023-01-31T03:48:34;20.35;;;2.10;;
59306;SDS011;47983;53.016;-2.260;2023-01-31T03:51:06;6.97;;;1.02;;
59306;SDS011;47983;53.016;-2.260;2023-01-31T03:53:39;10.98;;;1.42;;
59306;SDS011;47983;53.016;-2.260;2023-01-31T03:56:17;16.67;;;1.88;;
59306;SDS011;47983;53.016;-2.260;2023-01-31T03:58:52;9.38;;;1.17;;
59306;SDS011;47983;53.016;-2.260;2023-01-31T04:01:25;12.10;;;1.45;;
59306;SDS011;47983;53.016;-2.260;2023-01-31T04:03:58;18.77;;;2.90;;
59306;SDS011;47983;53.016;-2.260;2023-01-31T04:06:31;13.07;;;1.30;;
59306;SDS011;47983;53.016;-2.260;2023-01-31T04:08:59;8.43;;;0.93;;
59306;SDS011;47983;53.016;-2.260;2023-01-31T04:11:27;7.82;;;1.92;;
59306;SDS011;47983;53.016;-2.260;2023-01-31T04:13:54;13.85;;;2.25;;
59306;SDS011;47983;53.016;-2.260;2023-01-31T04:16:22;11.90;;;1.45;;
59306;SDS011;47983;53.016;-2.260;2023-01-31T04:18:49;6.18;;;1.33;;
59306;SDS011;47983;53.016;-2.260;2023-01-31T04:21:17;15.40;;;1.30;;
59306;SDS011;47983;53.016;-2.260;2023-01-31T04:23:45;14.73;;;1.80;;
59306;SDS011;47983;53.016;-2.260;2023-01-31T04:26:13;12.27;;;1.48;;
59306;SDS011;47983;53.016;-2.260;2023-01-31T04:28:40;8.48;;;1.13;;
59306;SDS011;47983;53.016;-2.260;2023-01-31T04:31:08;14.27;;;1.35;;
59306;SDS011;47983;53.016;-2.260;2023-01-31T04:33:36;8.95;;;1.30;;
59306;SDS011;47983;53.016;-2.260;2023-01-31T04:36:04;11.77;;;1.00;;
59306;SDS011;47983;53.016;-2.260;2023-01-31T04:38:32;18.50;;;1.80;;
59306;SDS011;47983;53.016;-2.260;2023-01-31T04:40:59;6.35;;;0.70;;
59306;SDS011;47983;53.016;-2.260;2023-01-31T04:43:27;7.72;;;1.17;;
59306;SDS011;47983;53.016;-2.260;2023-01-31T04:45:55;9.35;;;1.55;;
59306;SDS011;47983;53.016;-2.260;2023-01-31T04:48:22;12.10;;;1.20;;
59306;SDS011;47983;53.016;-2.260;2023-01-31T04:50:50;7.80;;;1.08;;
59306;SDS011;47983;53.016;-2.260;2023-01-31T04:53:17;10.38;;;1.20;;
59306;SDS011;47983;53.016;-2.260;2023-01-31T04:55:45;4.35;;;0.50;;
59306;SDS011;47983;53.016;-2.260;2023-01-31T04:58:13;9.02;;;1.05;;
59306;SDS011;47983;53.016;-2.260;2023-01-31T05:00:40;5.45;;;0.85;;
59306;SDS011;47983;53.016;-2.260;2023-01-31T05:03:09;8.77;;;0.80;;
59306;SDS011;47983;53.016;-2.260;2023-01-31T05:05:37;6.78;;;1.13;;
59306;SDS011;47983;53.016;-2.260;2023-01-31T05:08:05;8.90;;;1.17;;
59306;SDS011;47983;53.016;-2.260;2023-01-31T05:10:34;8.27;;;1.17;;
59306;SDS011;47983;53.016;-2.260;2023-01-31T05:13:02;6.05;;;0.68;;
59306;SDS011;47983;53.016;-2.260;2023-01-31T05:15:30;1.92;;;0.55;;
59306;SDS011;47983;53.016;-2.260;2023-01-31T05:17:58;4.70;;;0.55;;
59306;SDS011;47983;53.016;-2.260;2023-01-31T05:20:30;3.75;;;0.47;;
59306;SDS011;47983;53.016;-2.260;2023-01-31T05:22:59;2.40;;;0.52;;
59306;SDS011;47983;53.016;-2.260;2023-01-31T05:25:27;5.68;;;0.70;;
59306;SDS011;47983;53.016;-2.260;2023-01-31T05:27:55;1.55;;;0.40;;
59306;SDS011;47983;53.016;-2.260;2023-01-31T05:30:23;1.75;;;0.40;;
59306;SDS011;47983;53.016;-2.260;2023-01-31T05:32:51;2.72;;;0.32;;
59306;SDS011;47983;53.016;-2.260;2023-01-31T05:35:18;4.82;;;0.40;;
59306;SDS011;47983;53.016;-2.260;2023-01-31T05:37:46;2.50;;;0.55;;
59306;SDS011;47983;53.016;-2.260;2023-01-31T05:40:15;0.88;;;0.25;;
59306;SDS011;47983;53.016;-2.260;2023-01-31T05:42:43;4.43;;;0.83;;
59306;SDS011;47983;53.016;-2.260;2023-01-31T05:45:11;2.78;;;0.50;;
59306;SDS011;47983;53.016;-2.260;2023-01-31T05:47:44;5.47;;;0.40;;
59306;SDS011;47983;53.016;-2.260;2023-01-31T05:50:13;1.33;;;0.30;;
59306;SDS011;47983;53.016;-2.260;2023-01-31T05:52:51;4.80;;;0.45;;
59306;SDS011;47983;53.016;-2.260;2023-01-31T05:55:20;6.55;;;0.70;;
59306;SDS011;47983;53.016;-2.260;2023-01-31T05:57:48;4.80;;;0.50;;
59306;SDS011;47983;53.016;-2.260;2023-01-31T06:00:18;0.93;;;0.30;;
59306;SDS011;47983;53.016;-2.260;2023-01-31T06:02:46;10.30;;;1.13;;
59306;SDS011;47983;53.016;-2.260;2023-01-31T06:05:14;2.13;;;0.40;;
59306;SDS011;47983;53.016;-2.260;2023-01-31T06:07:42;0.68;;;0.10;;
59306;SDS011;47983;53.016;-2.260;2023-01-31T06:10:10;2.22;;;0.13;;
59306;SDS011;47983;53.016;-2.260;2023-01-31T06:12:37;1.27;;;0.40;;
59306;SDS011;47983;53.016;-2.260;2023-01-31T06:15:06;1.60;;;1.00;;
59306;SDS011;47983;53.016;-2.260;2023-01-31T06:17:34;1.95;;;0.60;;
59306;SDS011;47983;53.016;-2.260;2023-01-31T06:20:03;1.75;;;0.38;;
59306;SDS011;47983;53.016;-2.260;2023-01-31T06:22:31;1.35;;;0.20;;
59306;SDS011;47983;53.016;-2.260;2023-01-31T06:24:59;1.75;;;0.25;;
59306;SDS011;47983;53.016;-2.260;2023-01-31T06:27:26;2.17;;;0.40;;
59306;SDS011;47983;53.016;-2.260;2023-01-31T06:29:57;1.73;;;0.30;;
59306;SDS011;47983;53.016;-2.260;2023-01-31T06:32:25;0.80;;;0.28;;
59306;SDS011;47983;53.016;-2.260;2023-01-31T06:34:52;2.05;;;0.40;;
59306;SDS011;47983;53.016;-2.260;2023-01-31T06:37:20;1.45;;;0.30;;
59306;SDS011;47983;53.016;-2.260;2023-01-31T06:39:48;2.70;;;0.85;;
59306;SDS011;47983;53.016;-2.260;2023-01-31T06:42:15;12.05;;;1.17;;
59306;SDS011;47983;53.016;-2.260;2023-01-31T06:44:43;1.52;;;0.40;;
59306;SDS011;47983;53.016;-2.260;2023-01-31T06:47:11;0.70;;;0.32;;
59306;SDS011;47983;53.016;-2.260;2023-01-31T06:49:39;9.27;;;0.60;;
59306;SDS011;47983;53.016;-2.260;2023-01-31T06:52:09;1.33;;;0.20;;
59306;SDS011;47983;53.016;-2.260;2023-01-31T06:54:41;2.15;;;0.28;;
59306;SDS011;47983;53.016;-2.260;2023-01-31T06:57:08;7.15;;;1.85;;
59306;SDS011;47983;53.016;-2.260;2023-01-31T06:59:36;2.65;;;0.47;;
59306;SDS011;47983;53.016;-2.260;2023-01-31T07:02:03;0.60;;;0.50;;
59306;SDS011;47983;53.016;-2.260;2023-01-31T07:04:31;3.33;;;0.50;;
59306;SDS011;47983;53.016;-2.260;2023-01-31T07:06:59;3.03;;;0.40;;
59306;SDS011;47983;53.016;-2.260;2023-01-31T07:09:26;2.42;;;0.30;;
59306;SDS011;47983;53.016;-2.260;2023-01-31T07:11:54;4.57;;;0.77;;
59306;SDS011;47983;53.016;-2.260;2023-01-31T07:14:22;2.95;;;0.30;;
59306;SDS011;47983;53.016;-2.260;2023-01-31T07:16:50;2.70;;;0.77;;
59306;SDS011;47983;53.016;-2.260;2023-01-31T07:19:18;4.47;;;0.60;;
59306;SDS011;47983;53.016;-2.260;2023-01-31T07:21:45;0.90;;;0.30;;
59306;SDS011;47983;53.016;-2.260;2023-01-31T07:24:15;4.65;;;0.65;;
59306;SDS011;47983;53.016;-2.260;2023-01-31T07:26:42;1.17;;;0.47;;
59306;SDS011;47983;53.016;-2.260;2023-01-31T07:29:10;2.95;;;0.65;;
59306;SDS011;47983;53.016;-2.260;2023-01-31T07:31:38;3.30;;;0.43;;
59306;SDS011;47983;53.016;-2.260;2023-01-31T07:34:06;4.93;;;0.50;;
59306;SDS011;47983;53.016;-2.260;2023-01-31T07:36:33;1.85;;;0.47;;
59306;SDS011;47983;53.016;-2.260;2023-01-31T07:39:01;3.67;;;0.68;;
59306;SDS011;47983;53.016;-2.260;2023-01-31T07:41:28;1.27;;;0.43;;
59306;SDS011;47983;53.016;-2.260;2023-01-31T07:43:57;7.68;;;0.82;;
59306;SDS011;47983;53.016;-2.260;2023-01-31T07:46:25;6.88;;;1.23;;
59306;SDS011;47983;53.016;-2.260;2023-01-31T07:48:53;0.63;;;0.40;;
59306;SDS011;47983;53.016;-2.260;2023-01-31T07:51:20;1.55;;;1.17;;
59306;SDS011;47983;53.016;-2.260;2023-01-31T07:53:48;2.38;;;0.75;;
59306;SDS011;47983;53.016;-2.260;2023-01-31T07:56:16;4.07;;;0.82;;
59306;SDS011;47983;53.016;-2.260;2023-01-31T07:58:46;4.20;;;0.63;;
59306;SDS011;47983;53.016;-2.260;2023-01-31T08:01:19;5.00;;;1.05;;
59306;SDS011;47983;53.016;-2.260;2023-01-31T08:04:10;4.38;;;0.63;;
59306;SDS011;47983;53.016;-2.260;2023-01-31T08:06:49;4.80;;;0.73;;
59306;SDS011;47983;53.016;-2.260;2023-01-31T08:09:20;3.97;;;0.50;;
59306;SDS011;47983;53.016;-2.260;2023-01-31T08:11:49;4.87;;;1.10;;
59306;SDS011;47983;53.016;-2.260;2023-01-31T08:14:17;11.93;;;1.00;;
59306;SDS011;47983;53.016;-2.260;2023-01-31T08:16:51;6.75;;;0.98;;
59306;SDS011;47983;53.016;-2.260;2023-01-31T08:19:19;5.43;;;1.70;;
59306;SDS011;47983;53.016;-2.260;2023-01-31T08:21:48;5.05;;;1.17;;
59306;SDS011;47983;53.016;-2.260;2023-01-31T08:24:15;2.05;;;0.73;;
59306;SDS011;47983;53.016;-2.260;2023-01-31T08:26:43;2.47;;;0.82;;
59306;SDS011;47983;53.016;-2.260;2023-01-31T08:29:11;4.95;;;1.20;;
59306;SDS011;47983;53.016;-2.260;2023-01-31T08:31:39;5.38;;;0.73;;
59306;SDS011;47983;53.016;-2.260;2023-01-31T08:34:07;3.47;;;1.88;;
59306;SDS011;47983;53.016;-2.260;2023-01-31T08:36:35;15.25;;;4.78;;
59306;SDS011;47983;53.016;-2.260;2023-01-31T08:39:04;16.27;;;2.90;;
59306;SDS011;47983;53.016;-2.260;2023-01-31T08:41:33;12.80;;;2.67;;
59306;SDS011;47983;53.016;-2.260;2023-01-31T08:44:02;11.52;;;2.45;;
59306;SDS011;47983;53.016;-2.260;2023-01-31T08:46:32;16.25;;;2.40;;
59306;SDS011;47983;53.016;-2.260;2023-01-31T08:49:03;15.27;;;3.50;;
59306;SDS011;47983;53.016;-2.260;2023-01-31T08:51:32;17.27;;;2.67;;
59306;SDS011;47983;53.016;-2.260;2023-01-31T08:53:59;12.25;;;2.83;;
59306;SDS011;47983;53.016;-2.260;2023-01-31T08:56:27;24.40;;;2.72;;
59306;SDS011;47983;53.016;-2.260;2023-01-31T08:58:56;17.02;;;2.15;;
59306;SDS011;47983;53.016;-2.260;2023-01-31T09:01:23;18.73;;;3.05;;
59306;SDS011;47983;53.016;-2.260;2023-01-31T09:03:51;18.05;;;2.25;;
59306;SDS011;47983;53.016;-2.260;2023-01-31T09:06:23;13.65;;;2.17;;
59306;SDS011;47983;53.016;-2.260;2023-01-31T09:08:54;16.17;;;2.40;;
59306;SDS011;47983;53.016;-2.260;2023-01-31T09:11:22;14.88;;;2.17;;
59306;SDS011;47983;53.016;-2.260;2023-01-31T09:13:52;9.27;;;2.75;;
59306;SDS011;47983;53.016;-2.260;2023-01-31T09:16:20;27.33;;;2.45;;
59306;SDS011;47983;53.016;-2.260;2023-01-31T09:18:48;8.63;;;1.65;;
59306;SDS011;47983;53.016;-2.260;2023-01-31T09:21:16;17.50;;;2.53;;
59306;SDS011;47983;53.016;-2.260;2023-01-31T09:23:45;14.57;;;1.52;;
59306;SDS011;47983;53.016;-2.260;2023-01-31T09:26:14;10.32;;;2.22;;
59306;SDS011;47983;53.016;-2.260;2023-01-31T09:28:42;17.08;;;1.40;;
59306;SDS011;47983;53.016;-2.260;2023-01-31T09:31:13;16.45;;;2.25;;
59306;SDS011;47983;53.016;-2.260;2023-01-31T09:33:43;15.13;;;2.53;;
59306;SDS011;47983;53.016;-2.260;2023-01-31T09:36:15;12.07;;;1.77;;
59306;SDS011;47983;53.016;-2.260;2023-01-31T09:38:44;13.50;;;1.75;;
59306;SDS011;47983;53.016;-2.260;2023-01-31T09:43:54;14.38;;;2.35;;
59306;SDS011;47983;53.016;-2.260;2023-01-31T09:46:26;12.30;;;1.92;;
59306;SDS011;47983;53.016;-2.260;2023-01-31T09:48:58;16.70;;;2.05;;
59306;SDS011;47983;53.016;-2.260;2023-01-31T09:51:35;13.85;;;2.33;;
59306;SDS011;47983;53.016;-2.260;2023-01-31T09:54:06;20.25;;;2.35;;
59306;SDS011;47983;53.016;-2.260;2023-01-31T09:57:00;14.48;;;2.25;;
59306;SDS011;47983;53.016;-2.260;2023-01-31T09:59:41;20.40;;;2.90;;
59306;SDS011;47983;53.016;-2.260;2023-01-31T10:07:55;15.05;;;2.60;;
59306;SDS011;47983;53.016;-2.260;2023-01-31T10:15:48;12.18;;;1.30;;
59306;SDS011;47983;53.016;-2.260;2023-01-31T10:18:27;16.02;;;2.28;;
59306;SDS011;47983;53.016;-2.260;2023-01-31T10:20:59;12.68;;;1.95;;
59306;SDS011;47983;53.016;-2.260;2023-01-31T10:23:43;14.73;;;1.77;;
59306;SDS011;47983;53.016;-2.260;2023-01-31T10:26:27;19.85;;;2.30;;
59306;SDS011;47983;53.016;-2.260;2023-01-31T10:31:43;17.52;;;2.00;;
59306;SDS011;47983;53.016;-2.260;2023-01-31T10:34:25;8.60;;;1.58;;
59306;SDS011;47983;53.016;-2.260;2023-01-31T10:39:54;12.20;;;1.52;;
59306;SDS011;47983;53.016;-2.260;2023-01-31T10:42:33;8.05;;;1.40;;
59306;SDS011;47983;53.016;-2.260;2023-01-31T10:47:49;10.63;;;1.95;;
59306;SDS011;47983;53.016;-2.260;2023-01-31T10:53:34;26.63;;;3.03;;
59306;SDS011;47983;53.016;-2.260;2023-01-31T10:56:09;27.88;;;3.30;;
59306;SDS011;47983;53.016;-2.260;2023-01-31T10:58:45;21.20;;;2.25;;
59306;SDS011;47983;53.016;-2.260;2023-01-31T11:01:14;16.65;;;2.38;;
59306;SDS011;47983;53.016;-2.260;2023-01-31T11:03:47;14.43;;;2.28;;
59306;SDS011;47983;53.016;-2.260;2023-01-31T11:06:19;12.57;;;1.70;;
59306;SDS011;47983;53.016;-2.260;2023-01-31T11:08:57;12.48;;;1.85;;
59306;SDS011;47983;53.016;-2.260;2023-01-31T11:11:27;17.73;;;2.45;;
59306;SDS011;47983;53.016;-2.260;2023-01-31T11:14:02;19.88;;;5.00;;
59306;SDS011;47983;53.016;-2.260;2023-01-31T11:16:33;29.83;;;4.20;;
59306;SDS011;47983;53.016;-2.260;2023-01-31T11:19:04;14.32;;;4.22;;
59306;SDS011;47983;53.016;-2.260;2023-01-31T11:21:39;25.75;;;3.88;;
59306;SDS011;47983;53.016;-2.260;2023-01-31T11:24:14;14.43;;;2.95;;
59306;SDS011;47983;53.016;-2.260;2023-01-31T11:26:52;18.50;;;2.28;;
59306;SDS011;47983;53.016;-2.260;2023-01-31T11:29:37;18.13;;;2.50;;
59306;SDS011;47983;53.016;-2.260;2023-01-31T11:32:28;15.18;;;2.65;;
59306;SDS011;47983;53.016;-2.260;2023-01-31T11:37:26;18.17;;;2.60;;
59306;SDS011;47983;53.016;-2.260;2023-01-31T11:40:16;14.02;;;2.20;;
59306;SDS011;47983;53.016;-2.260;2023-01-31T11:42:55;13.25;;;1.85;;
59306;SDS011;47983;53.016;-2.260;2023-01-31T11:45:26;25.15;;;4.43;;
59306;SDS011;47983;53.016;-2.260;2023-01-31T11:47:57;14.05;;;2.63;;
59306;SDS011;47983;53.016;-2.260;2023-01-31T11:50:36;18.05;;;2.30;;
59306;SDS011;47983;53.016;-2.260;2023-01-31T11:53:19;22.35;;;2.63;;
59306;SDS011;47983;53.016;-2.260;2023-01-31T11:55:56;14.60;;;2.00;;
59306;SDS011;47983;53.016;-2.260;2023-01-31T11:58:36;21.40;;;2.60;;
59306;SDS011;47983;53.016;-2.260;2023-01-31T12:01:06;8.32;;;1.60;;
59306;SDS011;47983;53.016;-2.260;2023-01-31T12:03:34;17.98;;;2.20;;
59306;SDS011;47983;53.016;-2.260;2023-01-31T12:06:08;18.38;;;3.75;;
59306;SDS011;47983;53.016;-2.260;2023-01-31T12:08:42;20.33;;;3.00;;
59306;SDS011;47983;53.016;-2.260;2023-01-31T12:13:59;6.45;;;1.25;;
59306;SDS011;47983;53.016;-2.260;2023-01-31T12:16:27;13.30;;;2.75;;
59306;SDS011;47983;53.016;-2.260;2023-01-31T12:19:05;16.48;;;3.33;;
59306;SDS011;47983;53.016;-2.260;2023-01-31T12:24:25;22.60;;;4.15;;
59306;SDS011;47983;53.016;-2.260;2023-01-31T12:40:43;18.65;;;4.18;;
59306;SDS011;47983;53.016;-2.260;2023-01-31T12:51:27;18.20;;;2.63;;
59306;SDS011;47983;53.016;-2.260;2023-01-31T12:54:17;24.70;;;3.60;;
59306;SDS011;47983;53.016;-2.260;2023-01-31T13:05:38;16.60;;;2.47;;
59306;SDS011;47983;53.016;-2.260;2023-01-31T13:08:13;14.35;;;1.75;;
59306;SDS011;47983;53.016;-2.260;2023-01-31T13:13:24;16.98;;;3.25;;
59306;SDS011;47983;53.016;-2.260;2023-01-31T13:16:07;19.13;;;3.60;;
59306;SDS011;47983;53.016;-2.260;2023-01-31T13:18:45;17.30;;;2.83;;
59306;SDS011;47983;53.016;-2.260;2023-01-31T13:21:16;16.75;;;2.47;;
59306;SDS011;47983;53.016;-2.260;2023-01-31T13:23:51;13.15;;;2.25;;
59306;SDS011;47983;53.016;-2.260;2023-01-31T13:26:30;26.88;;;3.70;;
59306;SDS011;47983;53.016;-2.260;2023-01-31T13:29:22;14.10;;;2.55;;
59306;SDS011;47983;53.016;-2.260;2023-01-31T13:32:03;18.65;;;1.95;;
59306;SDS011;47983;53.016;-2.260;2023-01-31T13:34:47;16.65;;;2.75;;
59306;SDS011;47983;53.016;-2.260;2023-01-31T13:37:29;21.35;;;2.65;;
59306;SDS011;47983;53.016;-2.260;2023-01-31T13:40:02;15.25;;;3.33;;
59306;SDS011;47983;53.016;-2.260;2023-01-31T13:42:43;16.95;;;3.03;;
59306;SDS011;47983;53.016;-2.260;2023-01-31T13:45:18;14.65;;;2.08;;
59306;SDS011;47983;53.016;-2.260;2023-01-31T13:47:50;19.08;;;4.20;;
59306;SDS011;47983;53.016;-2.260;2023-01-31T13:52:51;16.98;;;2.55;;
59306;SDS011;47983;53.016;-2.260;2023-01-31T13:55:25;25.13;;;2.95;;
59306;SDS011;47983;53.016;-2.260;2023-01-31T13:58:03;22.02;;;3.25;;
59306;SDS011;47983;53.016;-2.260;2023-01-31T14:00:37;17.38;;;3.40;;
59306;SDS011;47983;53.016;-2.260;2023-01-31T14:03:14;17.55;;;2.58;;
59306;SDS011;47983;53.016;-2.260;2023-01-31T14:08:55;14.73;;;2.80;;
59306;SDS011;47983;53.016;-2.260;2023-01-31T14:13:42;16.48;;;2.58;;
59306;SDS011;47983;53.016;-2.260;2023-01-31T14:18:57;25.90;;;2.80;;
59306;SDS011;47983;53.016;-2.260;2023-01-31T14:23:56;21.85;;;2.85;;
59306;SDS011;47983;53.016;-2.260;2023-01-31T14:31:41;28.02;;;3.35;;
59306;SDS011;47983;53.016;-2.260;2023-01-31T14:34:20;22.08;;;2.63;;
59306;SDS011;47983;53.016;-2.260;2023-01-31T14:37:02;12.68;;;2.10;;
59306;SDS011;47983;53.016;-2.260;2023-01-31T14:53:09;22.48;;;3.05;;
59306;SDS011;47983;53.016;-2.260;2023-01-31T14:58:32;21.50;;;2.50;;
59306;SDS011;47983;53.016;-2.260;2023-01-31T15:01:03;11.67;;;2.30;;
59306;SDS011;47983;53.016;-2.260;2023-01-31T15:03:34;9.85;;;1.83;;
59306;SDS011;47983;53.016;-2.260;2023-01-31T15:06:10;15.15;;;2.25;;
59306;SDS011;47983;53.016;-2.260;2023-01-31T15:11:44;13.82;;;2.70;;
59306;SDS011;47983;53.016;-2.260;2023-01-31T15:17:17;16.77;;;3.85;;
59306;SDS011;47983;53.016;-2.260;2023-01-31T15:20:16;31.00;;;3.47;;
59306;SDS011;47983;53.016;-2.260;2023-01-31T15:22:45;14.10;;;2.13;;
59306;SDS011;47983;53.016;-2.260;2023-01-31T15:25:23;16.67;;;2.30;;
59306;SDS011;47983;53.016;-2.260;2023-01-31T15:27:59;13.38;;;3.28;;
59306;SDS011;47983;53.016;-2.260;2023-01-31T15:30:28;20.70;;;2.50;;
59306;SDS011;47983;53.016;-2.260;2023-01-31T15:33:04;24.98;;;2.53;;
59306;SDS011;47983;53.016;-2.260;2023-01-31T15:35:48;26.57;;;3.10;;
59306;SDS011;47983;53.016;-2.260;2023-01-31T15:38:35;18.92;;;2.63;;
59306;SDS011;47983;53.016;-2.260;2023-01-31T15:41:18;17.15;;;2.10;;
59306;SDS011;47983;53.016;-2.260;2023-01-31T15:43:53;20.80;;;2.08;;
59306;SDS011;47983;53.016;-2.260;2023-01-31T15:46:24;23.40;;;2.78;;
59306;SDS011;47983;53.016;-2.260;2023-01-31T15:48:53;16.02;;;2.10;;
59306;SDS011;47983;53.016;-2.260;2023-01-31T15:51:21;18.05;;;2.55;;
59306;SDS011;47983;53.016;-2.260;2023-01-31T15:53:59;11.60;;;1.83;;
59306;SDS011;47983;53.016;-2.260;2023-01-31T15:56:29;25.50;;;2.37;;
59306;SDS011;47983;53.016;-2.260;2023-01-31T15:58:56;24.15;;;4.82;;
59306;SDS011;47983;53.016;-2.260;2023-01-31T16:01:25;19.60;;;2.80;;
59306;SDS011;47983;53.016;-2.260;2023-01-31T16:03:57;26.20;;;4.90;;
59306;SDS011;47983;53.016;-2.260;2023-01-31T16:06:29;17.92;;;1.98;;
59306;SDS011;47983;53.016;-2.260;2023-01-31T16:09:01;15.00;;;2.80;;
59306;SDS011;47983;53.016;-2.260;2023-01-31T16:11:31;13.10;;;2.33;;
59306;SDS011;47983;53.016;-2.260;2023-01-31T16:14:01;21.37;;;3.03;;
59306;SDS011;47983;53.016;-2.260;2023-01-31T16:16:32;16.50;;;3.10;;
59306;SDS011;47983;53.016;-2.260;2023-01-31T16:19:01;24.92;;;3.88;;
59306;SDS011;47983;53.016;-2.260;2023-01-31T16:21:33;20.15;;;2.67;;
59306;SDS011;47983;53.016;-2.260;2023-01-31T16:26:57;14.50;;;2.20;;
59306;SDS011;47983;53.016;-2.260;2023-01-31T16:32:20;17.90;;;1.98;;
59306;SDS011;47983;53.016;-2.260;2023-01-31T16:35:00;14.98;;;2.03;;
59306;SDS011;47983;53.016;-2.260;2023-01-31T16:37:38;26.02;;;2.95;;
59306;SDS011;47983;53.016;-2.260;2023-01-31T16:40:18;11.52;;;2.25;;
59306;SDS011;47983;53.016;-2.260;2023-01-31T16:42:48;9.82;;;2.17;;
59306;SDS011;47983;53.016;-2.260;2023-01-31T16:45:29;14.40;;;2.22;;
59306;SDS011;47983;53.016;-2.260;2023-01-31T16:48:08;13.93;;;2.17;;
59306;SDS011;47983;53.016;-2.260;2023-01-31T16:50:47;15.75;;;1.98;;
59306;SDS011;47983;53.016;-2.260;2023-01-31T16:58:44;14.55;;;2.22;;
59306;SDS011;47983;53.016;-2.260;2023-01-31T17:01:22;11.90;;;1.88;;
59306;SDS011;47983;53.016;-2.260;2023-01-31T17:06:30;14.20;;;1.67;;
59306;SDS011;47983;53.016;-2.260;2023-01-31T17:08:59;16.58;;;2.20;;
59306;SDS011;47983;53.016;-2.260;2023-01-31T17:11:28;13.70;;;2.80;;
59306;SDS011;47983;53.016;-2.260;2023-01-31T17:14:09;17.33;;;1.90;;
59306;SDS011;47983;53.016;-2.260;2023-01-31T17:16:37;10.98;;;2.20;;
59306;SDS011;47983;53.016;-2.260;2023-01-31T17:19:05;17.65;;;2.90;;
59306;SDS011;47983;53.016;-2.260;2023-01-31T17:21:37;18.60;;;2.55;;
59306;SDS011;47983;53.016;-2.260;2023-01-31T17:24:13;11.63;;;1.67;;
59306;SDS011;47983;53.016;-2.260;2023-01-31T17:26:43;20.08;;;3.22;;
59306;SDS011;47983;53.016;-2.260;2023-01-31T17:29:11;13.95;;;2.95;;